M I D A S
Marine Information and Data Acquisition System
Tripno 1523 of the Zeeleeuw from 2008-07-22 06:44:23 to 2008-07-22 12:24:34
Back to CruiseResearch ActivitiesStationsMapUnderway DataData graphs

EquipmentUnitsComment
TimeDGPSUTC
LatitudeDGPSDM.mWGS84
LongitudeDGPSDM.mWGS84
HeadingGyrodeg 
SOGDGPSknotsSpeed over ground
COGDGPSdegCourse over ground
DepthEcho soundermeters200 kHz
Missing or incorrect values are displayed as -999
Navigation data collected by the RV Zeeleeuw from 2008-07-22 06:46:12 to 2008-07-22 12:28:47
Time Latitude Longitude Heading SOG COG Depth
2008-07-22 06:47:17 51°13.636 2°55.992 110.2 3.3 291 -999
2008-07-22 06:48:17 51°13.659 2°55.894 116.7 4.4 295 -999
2008-07-22 06:49:17 51°13.697 2°55.795 126.1 4.2 305 -999
2008-07-22 06:50:17 51°13.714 2°55.765 107.5 1.4 89 10.2
2008-07-22 06:51:17 51°13.717 2°55.782 60 1.3 240 10.1
2008-07-22 06:52:17 51°13.699 2°55.737 51.4 1.2 235 -999
2008-07-22 06:53:17 51°13.723 2°55.731 350.5 3.6 340 -999
2008-07-22 06:54:16 51°13.812 2°55.654 333.7 7.9 332 10.5
2008-07-22 06:55:17 51°13.943 2°55.545 335 9.2 334 10.6
2008-07-22 06:56:17 51°14.074 2°55.444 336.6 9 335 10.6
2008-07-22 06:57:17 51°14.213 2°55.32 323.7 9.8 319 -999
2008-07-22 06:58:17 51°14.329 2°55.109 310.9 10.9 308 10.4
2008-07-22 06:59:17 51°14.434 2°54.862 308.1 11.4 301 10.3
2008-07-22 07:00:17 51°14.555 2°54.633 326 11.2 323 9.9
2008-07-22 07:01:17 51°14.712 2°54.489 339.7 10.8 332 9.6
2008-07-22 07:02:17 51°14.871 2°54.361 339.6 10.7 332 9.2
2008-07-22 07:03:16 51°15.03 2°54.229 340.3 11.1 334 8.3
2008-07-22 07:04:16 51°15.196 2°54.098 340.9 11 335 8.6
2008-07-22 07:05:13 51°15.352 2°53.975 340.6 11 333 9.3
2008-07-22 07:06:13 51°15.518 2°53.837 341.6 11.4 335 9.7
2008-07-22 07:07:13 51°15.695 2°53.728 348.1 11.1 341 9.8
2008-07-22 07:08:13 51°15.872 2°53.625 347.4 11.4 340 10.4
2008-07-22 07:09:13 51°16.046 2°53.514 345.5 11.3 338 10.8
2008-07-22 07:10:13 51°16.223 2°53.405 345.7 11.3 337 11
2008-07-22 07:11:13 51°16.401 2°53.295 347.5 11.6 340 10.9
2008-07-22 07:12:13 51°16.585 2°53.18 344.9 11.9 338 10.7
2008-07-22 07:13:13 51°16.772 2°53.069 345.3 12 339 10.1
2008-07-22 07:14:13 51°16.955 2°52.959 345.4 11.9 340 8.4
2008-07-22 07:15:13 51°17.141 2°52.848 345.3 11.9 340 9.3
2008-07-22 07:16:13 51°17.328 2°52.744 348.3 11.9 343 9
2008-07-22 07:17:13 51°17.518 2°52.651 348.3 11.7 343 9.1
2008-07-22 07:18:13 51°17.707 2°52.554 347.6 11.9 342 9.6
2008-07-22 07:19:13 51°17.893 2°52.443 344.5 12 340 9.9
2008-07-22 07:20:13 51°18.08 2°52.332 346.5 12 341 9.9
2008-07-22 07:21:13 51°18.27 2°52.236 347.6 12.1 343 10.2
2008-07-22 07:22:13 51°18.46 2°52.134 346.9 12 341 11.1
2008-07-22 07:23:13 51°18.653 2°52.05 354.7 12 350 11.9
2008-07-22 07:24:13 51°18.85 2°51.997 356.1 12 349 12.8
2008-07-22 07:25:13 51°19.045 2°51.941 356.2 11.8 350 13.7
2008-07-22 07:26:13 51°19.236 2°51.878 355.6 11.6 348 14.2
2008-07-22 07:27:13 51°19.425 2°51.813 354.8 11.7 348 14.8
2008-07-22 07:28:13 51°19.616 2°51.761 357.1 11.6 350 15
2008-07-22 07:29:13 51°19.808 2°51.709 356.9 11.6 350 14.4
2008-07-22 07:30:13 51°19.999 2°51.662 359.1 11.9 352 13.8
2008-07-22 07:31:13 51°20.193 2°51.623 359.9 11.7 353 11.5
2008-07-22 07:32:13 51°20.387 2°51.584 359.4 11.8 352 12.9
2008-07-22 07:33:13 51°20.584 2°51.55 0.4 12 355 14.4
2008-07-22 07:34:13 51°20.78 2°51.515 0.1 11.8 355 15.4
2008-07-22 07:35:13 51°20.974 2°51.486 359.3 11.7 353 17.3
2008-07-22 07:36:13 51°21.17 2°51.449 358.5 11.9 354 19.8
2008-07-22 07:37:13 51°21.365 2°51.428 359.9 11.6 357 21.8
2008-07-22 07:38:13 51°21.56 2°51.404 359.7 11.9 356 22.6
2008-07-22 07:39:13 51°21.757 2°51.384 359.2 11.8 356 23.3
2008-07-22 07:40:13 51°21.953 2°51.356 357.8 12 354 23.1
2008-07-22 07:41:13 51°22.15 2°51.319 358.8 11.9 355 21.8
2008-07-22 07:42:13 51°22.348 2°51.29 358.9 11.9 355 22
2008-07-22 07:43:13 51°22.545 2°51.255 358.4 12 354 21.6
2008-07-22 07:44:13 51°22.743 2°51.222 358.5 12.1 354 21.5
2008-07-22 07:45:13 51°22.943 2°51.192 357.7 12 355 20.1
2008-07-22 07:46:13 51°23.143 2°51.159 358.3 11.8 356 13.5
2008-07-22 07:47:13 51°23.342 2°51.133 357.4 11.8 355 13.9
2008-07-22 07:48:13 51°23.543 2°51.103 357 11.8 353 15
2008-07-22 07:49:13 51°23.741 2°51.068 356.1 12.1 353 17.2
2008-07-22 07:50:13 51°23.941 2°51.032 356.8 11.9 352 17.6
2008-07-22 07:51:13 51°24.139 2°50.99 355.8 12.1 351 20.8
2008-07-22 07:52:13 51°24.336 2°50.95 355.9 11.8 352 20.8
2008-07-22 07:53:13 51°24.53 2°50.906 356 11.9 353 21.4
2008-07-22 07:54:13 51°24.724 2°50.859 356.1 11.8 352 21.4
2008-07-22 07:55:13 51°24.918 2°50.815 355.3 11.8 352 21.7
2008-07-22 07:56:13 51°25.112 2°50.769 356.7 11.9 353 22.1
2008-07-22 07:57:13 51°25.308 2°50.727 354.8 12 351 22.2
2008-07-22 07:58:13 51°25.503 2°50.688 356.3 11.9 353 22.3
2008-07-22 07:59:13 51°25.698 2°50.649 355.7 11.6 353 22
2008-07-22 08:00:13 51°25.891 2°50.611 356.9 11.8 353 22
2008-07-22 08:01:13 51°26.082 2°50.57 355.9 11.7 351 22.3
2008-07-22 08:02:13 51°26.276 2°50.52 355.5 11.6 350 21.8
2008-07-22 08:03:13 51°26.471 2°50.471 357 11.9 352 22
2008-07-22 08:04:13 51°26.665 2°50.425 356.1 11.6 352 22.1
2008-07-22 08:05:13 51°26.857 2°50.383 357.1 11.9 351 20.1
2008-07-22 08:06:13 51°27.051 2°50.338 356.8 11.8 354 18.5
2008-07-22 08:07:13 51°27.242 2°50.29 356.3 11.6 351 20.6
2008-07-22 08:08:13 51°27.436 2°50.246 356.8 11.7 353 22.7
2008-07-22 08:09:13 51°27.63 2°50.203 355.9 11.6 352 24
2008-07-22 08:10:13 51°27.824 2°50.16 356.4 11.9 353 28
2008-07-22 08:11:13 51°28.017 2°50.124 355.9 11.7 353 26.9
2008-07-22 08:12:13 51°28.211 2°50.076 356.5 11.7 352 26.2
2008-07-22 08:13:13 51°28.404 2°50.03 356.2 11.7 351 24.9
2008-07-22 08:14:13 51°28.595 2°49.983 356.3 11.6 351 25.7
2008-07-22 08:15:13 51°28.787 2°49.936 357.6 11.7 349 26.6
2008-07-22 08:16:13 51°28.977 2°49.893 357.3 11.6 351 26.9
2008-07-22 08:17:13 51°29.169 2°49.856 358.1 11.6 354 29.7
2008-07-22 08:18:13 51°29.361 2°49.821 358.5 11.7 354 28.7
2008-07-22 08:19:13 51°29.552 2°49.786 359.2 11.1 358 28.5
2008-07-22 08:20:13 51°29.726 2°49.872 34.6 11 36 26.6
2008-07-22 08:21:13 51°29.867 2°50.064 44.2 11.2 42 23.6
2008-07-22 08:22:13 51°30.01 2°50.255 42.3 11.2 39 23.4
2008-07-22 08:23:13 51°30.156 2°50.438 40.4 11.2 37 20.4
2008-07-22 08:24:13 51°30.297 2°50.628 42.7 10.9 41 17.4
2008-07-22 08:25:13 51°30.438 2°50.823 42.6 11 42 20.7
2008-07-22 08:26:13 51°30.556 2°51.054 57.1 11 54 20.4
2008-07-22 08:27:13 51°30.66 2°51.303 57.6 11.3 56 19.4
2008-07-22 08:28:13 51°30.761 2°51.555 58 11.4 56 20.2
2008-07-22 08:29:13 51°30.866 2°51.802 56.2 11.2 56 19.3
2008-07-22 08:30:13 51°30.972 2°52.048 56.9 11.3 55 20.9
2008-07-22 08:31:13 51°31.077 2°52.295 57.2 11.1 53 20
2008-07-22 08:32:13 51°31.181 2°52.541 56.5 11.1 56 20
2008-07-22 08:33:13 51°31.287 2°52.784 55.8 11 55 19.8
2008-07-22 08:34:13 51°31.392 2°53.031 56.6 11.3 54 19.7
2008-07-22 08:35:13 51°31.496 2°53.277 56.4 11.3 56 19.7
2008-07-22 08:36:13 51°31.601 2°53.524 57.3 11.3 57 20.3
2008-07-22 08:37:13 51°31.705 2°53.773 56.2 11.2 55 19.3
2008-07-22 08:38:13 51°31.809 2°54.021 55.8 11.1 54 19.5
2008-07-22 08:39:13 51°31.916 2°54.267 55.8 11.2 55 19.9
2008-07-22 08:40:13 51°32.058 2°54.44 22.4 10.8 14 18
2008-07-22 08:41:13 51°32.236 2°54.389 340.9 11.4 333 21.3
2008-07-22 08:42:13 51°32.401 2°54.228 334.5 11.6 328 19
2008-07-22 08:43:13 51°32.569 2°54.075 337.3 11.6 331 23.5
2008-07-22 08:44:13 51°32.74 2°53.93 337.9 11.6 332 21.5
2008-07-22 08:45:13 51°32.909 2°53.786 338.2 11.4 332 23.9
2008-07-22 08:46:13 51°33.077 2°53.642 339.1 11.6 332 25.7
2008-07-22 08:47:13 51°33.231 2°53.457 318.5 11.7 309 27.4
2008-07-22 08:48:13 51°33.285 2°53.151 271.8 12.6 263 27.6
2008-07-22 08:49:13 51°33.177 2°52.863 226 13.1 226 27.5
2008-07-22 08:50:13 51°33.019 2°52.615 225.2 13.4 227 28.6
2008-07-22 08:51:13 51°32.887 2°52.335 240.1 13.2 239 28.9
2008-07-22 08:52:13 51°32.773 2°52.033 241.1 13 237 26.2
2008-07-22 08:53:13 51°32.655 2°51.739 239 12.9 234 27.3
2008-07-22 08:54:13 51°32.54 2°51.446 240 12.9 238 28.1
2008-07-22 08:55:13 51°32.425 2°51.152 239.8 13.2 235 26.8
2008-07-22 08:56:13 51°32.322 2°50.852 251.8 12.4 256 30.2
2008-07-22 08:57:13 51°32.352 2°50.538 301.5 12 296 30.8
2008-07-22 08:58:13 51°32.471 2°50.288 320.2 11.8 313 30.3
2008-07-22 08:59:13 51°32.606 2°50.06 321.6 11.8 312 29.3
2008-07-22 09:00:13 51°32.741 2°49.833 321.7 11.8 313 30.6
2008-07-22 09:01:13 51°32.877 2°49.605 322.2 11.7 313 30.5
2008-07-22 09:02:13 51°33.013 2°49.378 321.9 11.7 315 32.3
2008-07-22 09:03:13 51°33.166 2°49.197 334.5 11.5 326 29.9
2008-07-22 09:04:13 51°33.328 2°49.044 342.5 11.2 335 32.5
2008-07-22 09:05:13 51°33.498 2°48.916 341.9 11.2 335 34.3
2008-07-22 09:06:13 51°33.667 2°48.789 341.8 11 335 35.8
2008-07-22 09:07:13 51°33.839 2°48.678 349.7 11 345 30.7
2008-07-22 09:08:13 51°34.014 2°48.598 350.5 11 346 30.5
2008-07-22 09:09:13 51°34.189 2°48.517 350.3 10.9 344 30
2008-07-22 09:10:13 51°34.364 2°48.434 349 11.1 342 27.3
2008-07-22 09:11:13 51°34.538 2°48.347 349.1 10.7 342 25.3
2008-07-22 09:12:13 51°34.713 2°48.339 6.4 10.6 7 28.3
2008-07-22 09:13:13 51°34.887 2°48.372 12.2 10.6 9 28.4
2008-07-22 09:14:13 51°35.058 2°48.429 15.6 10.6 15 30
2008-07-22 09:15:13 51°35.228 2°48.489 15.8 10.5 11 29
2008-07-22 09:16:13 51°35.399 2°48.55 15.1 10.5 12 32.5
2008-07-22 09:17:13 51°35.57 2°48.612 14.8 10.6 13 30
2008-07-22 09:18:13 51°35.743 2°48.671 14.8 10.6 15 32.6
2008-07-22 09:19:13 51°35.917 2°48.731 14.4 10.6 12 33
2008-07-22 09:20:13 51°36.088 2°48.791 14.5 10.5 11 32.7
2008-07-22 09:21:13 51°36.261 2°48.848 14.4 10.4 14 35.5
2008-07-22 09:22:13 51°36.432 2°48.909 14.4 10.5 12 33.4
2008-07-22 09:23:13 51°36.605 2°48.963 14 10.6 10 38.1
2008-07-22 09:24:13 51°36.777 2°49.019 14.4 10.5 11 31.7
2008-07-22 09:25:13 51°36.947 2°49.074 14.7 10.5 10 38.2
2008-07-22 09:26:13 51°37.117 2°49.134 14.9 10.6 11 38.4
2008-07-22 09:27:13 51°37.29 2°49.188 14.4 10.6 11 31.3
2008-07-22 09:28:13 51°37.46 2°49.242 14.8 10.4 11 38
2008-07-22 09:29:13 51°37.629 2°49.296 14.4 10.5 11 37.5
2008-07-22 09:30:13 51°37.799 2°49.351 14.5 10.4 12 36.9
2008-07-22 09:31:13 51°37.97 2°49.4 12.4 10.5 12 37.4
2008-07-22 09:32:13 51°38.138 2°49.452 14.1 10.2 9 36
2008-07-22 09:33:13 51°38.304 2°49.507 14.5 10.4 11 36.3
2008-07-22 09:34:13 51°38.475 2°49.559 14.1 10.2 9 36.9
2008-07-22 09:35:13 51°38.641 2°49.612 14.7 10.4 12 36.5
2008-07-22 09:36:13 51°38.81 2°49.667 14.8 10.4 10 35.8
2008-07-22 09:37:13 51°38.979 2°49.722 14.8 10.2 13 34.7
2008-07-22 09:38:13 51°39.145 2°49.775 14.7 10.2 14 35.3
2008-07-22 09:39:13 51°39.313 2°49.829 14.2 10.5 9 36
2008-07-22 09:40:13 51°39.48 2°49.882 14.5 10.2 10 34.3
2008-07-22 09:41:13 51°39.648 2°49.935 13.4 10.3 11 35.5
2008-07-22 09:42:13 51°39.816 2°49.989 14.5 10.2 14 35.1
2008-07-22 09:43:13 51°39.98 2°50.06 26.4 10 27 37.5
2008-07-22 09:44:13 51°40.114 2°50.229 42.8 10.5 45 36.4
2008-07-22 09:45:13 51°40.227 2°50.436 53.1 10.2 59 36
2008-07-22 09:46:13 51°40.282 2°50.703 77.9 10.9 87 31.4
2008-07-22 09:47:13 51°40.264 2°50.997 99.4 11.4 106 34.1
2008-07-22 09:48:13 51°40.18 2°51.281 107.9 12 117 33
2008-07-22 09:49:13 51°40.089 2°51.56 112.4 11.9 124 31.1
2008-07-22 09:50:13 51°39.961 2°51.81 121.5 12.2 132 29.3
2008-07-22 09:51:13 51°39.833 2°52.059 118.9 12.2 136 34.4
2008-07-22 09:52:13 51°39.704 2°52.308 121.2 12.1 126 32
2008-07-22 09:53:13 51°39.576 2°52.559 121.8 12.1 124 32.2
2008-07-22 09:54:13 51°39.449 2°52.807 120.1 12.2 131 33.7
2008-07-22 09:55:13 51°39.32 2°53.056 121.6 12.1 126 34.6
2008-07-22 09:56:13 51°39.181 2°53.295 126.7 12.2 132 29.1
2008-07-22 09:57:13 51°39.04 2°53.529 126 12.4 140 32.2
2008-07-22 09:58:13 51°38.898 2°53.759 126.2 12.1 130 30.1
2008-07-22 09:59:13 51°38.757 2°53.989 126.1 12.1 135 31.6
2008-07-22 10:00:13 51°38.616 2°54.219 123.3 12.2 141 31.1
2008-07-22 10:01:13 51°38.477 2°54.456 125.3 12.4 131 27.8
2008-07-22 10:02:13 51°38.332 2°54.69 125.8 12.1 135 27.3
2008-07-22 10:03:13 51°38.19 2°54.923 127.3 12.7 135 28
2008-07-22 10:04:13 51°38.035 2°55.139 140.4 12.7 149 26.3
2008-07-22 10:05:13 51°37.849 2°55.305 140.8 12.4 153 -999
2008-07-22 10:06:13 51°37.642 2°55.393 177 13.5 183 23.2
2008-07-22 10:07:13 51°37.458 2°55.209 234.9 13.5 236 22.7
2008-07-22 10:08:13 51°37.33 2°54.91 240.4 13.4 238 22.8
2008-07-22 10:09:13 51°37.203 2°54.609 239.2 13.5 238 22.6
2008-07-22 10:10:13 51°37.076 2°54.308 241 13.6 231 22.3
2008-07-22 10:11:13 51°36.951 2°54.006 241.3 13.4 237 21.8
2008-07-22 10:12:13 51°36.825 2°53.701 240.9 13.7 238 22.2
2008-07-22 10:13:13 51°36.702 2°53.395 240.9 13.2 237 22
2008-07-22 10:14:13 51°36.576 2°53.094 240 13.7 233 22.2
2008-07-22 10:15:13 51°36.449 2°52.792 239.9 13.7 238 20.3
2008-07-22 10:16:13 51°36.324 2°52.488 242 13.7 233 20.6
2008-07-22 10:17:13 51°36.146 2°52.304 183.7 12.8 181 22.7
2008-07-22 10:18:13 51°35.922 2°52.321 173.2 13.8 175 23.7
2008-07-22 10:19:13 51°35.699 2°52.329 172.6 13.1 176 25
2008-07-22 10:20:13 51°35.476 2°52.345 171.8 13.7 178 31.2
2008-07-22 10:21:13 51°35.252 2°52.355 173.1 13.4 179 34.5
2008-07-22 10:22:13 51°35.033 2°52.376 158.4 12.6 162 35.9
2008-07-22 10:23:13 51°34.871 2°52.564 119 11.5 125 33.9
2008-07-22 10:24:13 51°34.835 2°52.841 76.1 10.2 80 32.3
2008-07-22 10:25:13 51°34.916 2°53.076 54.8 10.3 58 34.4
2008-07-22 10:26:13 51°35 2°53.313 58.9 10.4 62 34.6
2008-07-22 10:27:13 51°35.08 2°53.559 60.5 10.3 65 33.6
2008-07-22 10:28:13 51°35.158 2°53.802 60.4 10.2 64 33.7
2008-07-22 10:29:13 51°35.237 2°54.043 60 10.3 60 31.8
2008-07-22 10:30:13 51°35.316 2°54.287 60.4 10.4 63 33.8
2008-07-22 10:31:13 51°35.394 2°54.534 60.7 10.4 64 33.2
2008-07-22 10:32:13 51°35.472 2°54.777 59.7 10.3 62 31.7
2008-07-22 10:33:13 51°35.551 2°55.021 59.8 10.3 64 32.4
2008-07-22 10:34:13 51°35.627 2°55.268 60.9 10.3 65 30.9
2008-07-22 10:35:13 51°35.702 2°55.516 60.5 10.5 65 33.3
2008-07-22 10:36:13 51°35.78 2°55.76 59.3 10.1 63 31.2
2008-07-22 10:37:13 51°35.833 2°56.016 82.3 10.4 90 29.7
2008-07-22 10:38:13 51°35.795 2°56.303 95.7 11.1 105 33.1
2008-07-22 10:39:13 51°35.748 2°56.589 96.1 11.2 105 32.8
2008-07-22 10:40:13 51°35.64 2°56.824 140.9 11.9 159 33.6
2008-07-22 10:41:13 51°35.423 2°56.801 188.5 13.8 195 32.1
2008-07-22 10:42:13 51°35.201 2°56.707 183.6 14.1 192 33
2008-07-22 10:43:13 51°34.974 2°56.658 180.9 13.2 186 33.9
2008-07-22 10:44:13 51°34.749 2°56.61 180.6 13.8 189 32.5
2008-07-22 10:45:13 51°34.518 2°56.566 178.9 13.8 184 31
2008-07-22 10:46:13 51°34.29 2°56.568 168.7 13.8 175 30.2
2008-07-22 10:47:13 51°34.061 2°56.594 162.7 13.7 168 29.6
2008-07-22 10:48:13 51°33.845 2°56.674 155.4 13.6 165 27.3
2008-07-22 10:49:13 51°33.65 2°56.825 139.2 12.7 145 25.6
2008-07-22 10:50:13 51°33.47 2°57.006 138.6 12.9 155 26.8
2008-07-22 10:51:13 51°33.293 2°57.195 137.8 12.9 146 24.3
2008-07-22 10:52:13 51°33.115 2°57.38 137.8 12.5 145 20.9
2008-07-22 10:53:13 51°32.933 2°57.56 140.3 13.1 154 19.9
2008-07-22 10:54:13 51°32.754 2°57.743 138.2 12.6 145 16.2
2008-07-22 10:55:13 51°32.575 2°57.93 140.4 13.2 147 16.6
2008-07-22 10:56:13 51°32.395 2°58.119 138.4 13.2 146 12.9
2008-07-22 10:57:13 51°32.205 2°58.286 150.1 12.9 155 27.7
2008-07-22 10:58:13 51°31.998 2°58.382 162.7 13.2 176 35.1
2008-07-22 10:59:13 51°31.775 2°58.399 172.6 13.5 181 33.1
2008-07-22 11:00:13 51°31.551 2°58.335 188.9 13.8 198 29.8
2008-07-22 11:01:13 51°31.362 2°58.136 224 13.7 229 29.5
2008-07-22 11:02:13 51°31.203 2°57.864 227.9 14.1 226 29.4
2008-07-22 11:03:13 51°31.048 2°57.585 230.6 13.8 229 29.5
2008-07-22 11:04:13 51°30.897 2°57.302 229.7 14 229 29.8
2008-07-22 11:05:13 51°30.743 2°57.025 227.1 13.7 228 29.1
2008-07-22 11:06:13 51°30.588 2°56.753 227.4 14 226 29.8
2008-07-22 11:07:13 51°30.433 2°56.485 220.9 13.7 220 30
2008-07-22 11:08:13 51°30.24 2°56.297 203.9 13.5 204 30.5
2008-07-22 11:09:13 51°30.041 2°56.13 201 13.5 209 29
2008-07-22 11:10:13 51°29.839 2°55.984 190.5 13.3 198 28
2008-07-22 11:11:13 51°29.627 2°55.904 184.3 13 191 27.2
2008-07-22 11:12:13 51°29.409 2°55.828 187.2 13.1 195 26.2
2008-07-22 11:13:13 51°29.194 2°55.732 188.9 13.2 196 25.2
2008-07-22 11:14:13 51°28.975 2°55.634 190.5 13.8 196 22.4
2008-07-22 11:15:13 51°28.758 2°55.544 189.9 13.6 194 22.3
2008-07-22 11:16:13 51°28.54 2°55.45 190.2 13.6 198 22.2
2008-07-22 11:17:13 51°28.321 2°55.364 189.7 13.2 193 24
2008-07-22 11:18:13 51°28.102 2°55.277 188.6 13.7 195 25.5
2008-07-22 11:19:13 51°27.882 2°55.193 188.5 13.2 195 27.4
2008-07-22 11:20:13 51°27.662 2°55.11 188 13.7 192 27.6
2008-07-22 11:21:13 51°27.442 2°55.026 187.2 13.6 191 27.6
2008-07-22 11:22:13 51°27.222 2°54.944 185.9 13.3 193 28
2008-07-22 11:23:13 51°27.003 2°54.868 183.3 13.3 188 26.8
2008-07-22 11:24:13 51°26.782 2°54.802 185.2 13.5 188 26
2008-07-22 11:25:13 51°26.56 2°54.734 184.4 13.7 192 25.6
2008-07-22 11:26:13 51°26.338 2°54.671 182.7 13.9 191 25
2008-07-22 11:27:13 51°26.118 2°54.596 187.6 13.6 196 23.9
2008-07-22 11:28:13 51°25.897 2°54.533 181.2 13.6 190 23.1
2008-07-22 11:29:13 51°25.676 2°54.484 180.8 13.2 188 21.4
2008-07-22 11:30:13 51°25.454 2°54.435 182.1 13.1 184 19.6
2008-07-22 11:31:13 51°25.231 2°54.417 177.1 13.3 182 19.3
2008-07-22 11:32:13 51°25.011 2°54.401 177.9 13 183 19.3
2008-07-22 11:33:13 51°24.791 2°54.389 177.4 13.1 180 15.9
2008-07-22 11:34:13 51°24.572 2°54.38 178.1 13.2 178 18.6
2008-07-22 11:35:13 51°24.354 2°54.361 180.2 13 184 21.7
2008-07-22 11:36:13 51°24.139 2°54.322 189 12.9 192 21.5
2008-07-22 11:37:13 51°23.929 2°54.203 201.7 13.6 209 20.6
2008-07-22 11:38:13 51°23.728 2°54.039 203.1 13.6 208 20.5
2008-07-22 11:39:13 51°23.521 2°53.89 201.3 13.5 200 19.8
2008-07-22 11:40:13 51°23.315 2°53.744 201.3 13.9 201 20
2008-07-22 11:41:13 51°23.11 2°53.602 198.2 13.6 200 21.1
2008-07-22 11:42:13 51°22.901 2°53.476 197.6 13.2 201 21.4
2008-07-22 11:43:13 51°22.692 2°53.357 194.8 13.2 197 22.2
2008-07-22 11:44:13 51°22.486 2°53.235 197.2 13 200 22.8
2008-07-22 11:45:13 51°22.281 2°53.108 197.9 13.1 202 22.9
2008-07-22 11:46:13 51°22.074 2°53.02 181.7 12.7 179 22.1
2008-07-22 11:47:13 51°21.864 2°53.028 173.1 12.5 177 20
2008-07-22 11:48:13 51°21.651 2°53.031 174.7 12.8 178 18.1
2008-07-22 11:49:13 51°21.438 2°53.045 170.2 12.5 177 16.5
2008-07-22 11:50:13 51°21.226 2°53.064 171.9 13 177 15
2008-07-22 11:51:13 51°21.01 2°53.07 174.7 12.7 181 15.5
2008-07-22 11:52:13 51°20.795 2°53.07 174.7 12.8 182 16.3
2008-07-22 11:53:13 51°20.578 2°53.067 176.3 13.3 181 16.3
2008-07-22 11:54:13 51°20.36 2°53.044 178.7 13.4 184 16.1
2008-07-22 11:55:13 51°20.143 2°53.02 178.7 13.1 184 16.1
2008-07-22 11:56:13 51°19.927 2°52.989 178 13 183 15.9
2008-07-22 11:57:13 51°19.711 2°52.967 175.9 12.9 182 15.2
2008-07-22 11:58:13 51°19.496 2°52.95 179.1 12.8 185 14.3
2008-07-22 11:59:13 51°19.279 2°52.923 178.2 12.6 184 13.5
2008-07-22 12:00:13 51°19.06 2°52.905 176.5 13.1 184 12.5
2008-07-22 12:01:13 51°18.845 2°52.884 179.9 13.1 184 12
2008-07-22 12:02:13 51°18.629 2°52.87 173.4 12.7 175 11.6
2008-07-22 12:03:13 51°18.416 2°52.91 167.2 12.8 173 11.4
2008-07-22 12:04:13 51°18.205 2°52.963 162.9 13 168 10.9
2008-07-22 12:05:13 51°17.994 2°52.997 171.2 12.6 178 10.8
2008-07-22 12:06:13 51°17.778 2°53.005 175.1 13.1 178 10.3
2008-07-22 12:07:13 51°17.561 2°53.01 173.1 12.8 179 10.1
2008-07-22 12:08:13 51°17.346 2°53.021 173.6 12.8 179 9.9
2008-07-22 12:09:13 51°17.13 2°53.02 175.2 13.1 180 9.5
2008-07-22 12:10:13 51°16.916 2°53.027 173.6 12 177 8.7
2008-07-22 12:11:13 51°16.707 2°53.06 169.1 12.1 172 11.5
2008-07-22 12:12:13 51°16.504 2°53.13 158.9 12.6 161 11.9
2008-07-22 12:13:13 51°16.306 2°53.229 154.6 12.3 158 12
2008-07-22 12:14:13 51°16.117 2°53.346 151.6 12.3 158 11.8
2008-07-22 12:15:13 51°15.935 2°53.48 150.2 11.3 157 11.6
2008-07-22 12:16:13 51°15.75 2°53.608 150.9 12.3 156 11.4
2008-07-22 12:17:13 51°15.562 2°53.728 153.6 12.6 160 10.6
2008-07-22 12:18:13 51°15.374 2°53.854 150.4 11.9 155 10.2
2008-07-22 12:19:13 51°15.192 2°54.001 146.4 12.1 150 9.7
2008-07-22 12:20:13 51°15.018 2°54.151 149.8 11.7 154 9.4
2008-07-22 12:21:13 51°14.846 2°54.312 143.7 12 151 10.1
2008-07-22 12:22:13 51°14.686 2°54.496 136.5 12 139 10.4
2008-07-22 12:23:13 51°14.545 2°54.708 132.5 11.3 140 10.7
2008-07-22 12:24:13 51°14.41 2°54.934 125 11.5 132 11.1
2008-07-22 12:25:13 51°14.29 2°55.187 127.4 11 130 10.9
2008-07-22 12:26:14 51°14.197 2°55.336 141.5 6 144 11.5
2008-07-22 12:27:17 51°14.119 2°55.407 152.4 4.7 153 -999
2008-07-22 12:28:17 51°14.038 2°55.47 152.8 6.5 154 11.6